sensor_id;sensor_type;location;lat;lon;timestamp;pressure;altitude;pressure_sealevel;temperature;humidity
63556;BME280;49700;48.072;7.800;2023-07-02T00:01:07;98981.78;;;20.75;70.23
63556;BME280;49700;48.072;7.800;2023-07-02T00:03:34;98981.78;;;20.75;70.37
63556;BME280;49700;48.072;7.800;2023-07-02T00:05:59;98978.09;;;20.76;70.37
63556;BME280;49700;48.072;7.800;2023-07-02T00:08:25;98982.63;;;20.75;70.42
63556;BME280;49700;48.072;7.800;2023-07-02T00:10:53;98979.94;;;20.75;70.43
63556;BME280;49700;48.072;7.800;2023-07-02T00:13:19;98976.00;;;20.71;70.27
63556;BME280;49700;48.072;7.800;2023-07-02T00:15:45;98979.84;;;20.69;70.51
63556;BME280;49700;48.072;7.800;2023-07-02T00:18:10;98975.69;;;20.66;70.66
63556;BME280;49700;48.072;7.800;2023-07-02T00:20:42;98976.22;;;20.62;70.64
63556;BME280;49700;48.072;7.800;2023-07-02T00:23:07;98976.56;;;20.59;70.70
63556;BME280;49700;48.072;7.800;2023-07-02T00:25:35;98975.09;;;20.56;70.41
63556;BME280;49700;48.072;7.800;2023-07-02T00:28:00;98982.44;;;20.54;70.82
63556;BME280;49700;48.072;7.800;2023-07-02T00:30:26;98983.59;;;20.51;70.83
63556;BME280;49700;48.072;7.800;2023-07-02T00:32:51;98982.09;;;20.49;71.02
63556;BME280;49700;48.072;7.800;2023-07-02T00:35:17;98978.13;;;20.45;70.83
63556;BME280;49700;48.072;7.800;2023-07-02T00:37:42;98976.66;;;20.42;70.91
63556;BME280;49700;48.072;7.800;2023-07-02T00:40:08;98976.00;;;20.40;70.79
63556;BME280;49700;48.072;7.800;2023-07-02T00:42:34;98974.34;;;20.39;71.05
63556;BME280;49700;48.072;7.800;2023-07-02T00:44:59;98971.00;;;20.37;70.93
63556;BME280;49700;48.072;7.800;2023-07-02T00:47:30;98977.38;;;20.36;70.94
63556;BME280;49700;48.072;7.800;2023-07-02T00:49:59;98985.53;;;20.34;71.06
63556;BME280;49700;48.072;7.800;2023-07-02T00:52:26;98987.38;;;20.34;71.09
63556;BME280;49700;48.072;7.800;2023-07-02T00:54:52;98989.84;;;20.36;71.09
63556;BME280;49700;48.072;7.800;2023-07-02T00:57:18;98988.66;;;20.38;71.06
63556;BME280;49700;48.072;7.800;2023-07-02T00:59:44;98989.31;;;20.40;71.03
63556;BME280;49700;48.072;7.800;2023-07-02T01:02:12;98982.16;;;20.41;70.89
63556;BME280;49700;48.072;7.800;2023-07-02T01:04:39;98990.16;;;20.41;70.89
63556;BME280;49700;48.072;7.800;2023-07-02T01:07:05;98984.81;;;20.41;71.11
63556;BME280;49700;48.072;7.800;2023-07-02T01:09:36;98985.66;;;20.41;71.09
63556;BME280;49700;48.072;7.800;2023-07-02T01:12:04;98992.66;;;20.42;71.05
63556;BME280;49700;48.072;7.800;2023-07-02T01:14:38;98991.84;;;20.42;70.94
63556;BME280;49700;48.072;7.800;2023-07-02T01:17:06;98993.47;;;20.43;71.16
63556;BME280;49700;48.072;7.800;2023-07-02T01:19:54;98986.50;;;20.42;71.14
63556;BME280;49700;48.072;7.800;2023-07-02T01:22:26;98990.16;;;20.41;71.25
63556;BME280;49700;48.072;7.800;2023-07-02T01:24:55;98993.00;;;20.39;71.30
63556;BME280;49700;48.072;7.800;2023-07-02T01:27:21;98990.34;;;20.39;71.25
63556;BME280;49700;48.072;7.800;2023-07-02T01:29:50;98998.34;;;20.39;71.35
63556;BME280;49700;48.072;7.800;2023-07-02T01:32:17;99002.84;;;20.39;71.39
63556;BME280;49700;48.072;7.800;2023-07-02T01:34:44;99000.16;;;20.39;71.45
63556;BME280;49700;48.072;7.800;2023-07-02T01:37:14;99001.19;;;20.38;71.61
63556;BME280;49700;48.072;7.800;2023-07-02T01:39:42;99006.72;;;20.36;71.57
63556;BME280;49700;48.072;7.800;2023-07-02T01:42:14;99003.19;;;20.36;71.89
63556;BME280;49700;48.072;7.800;2023-07-02T01:44:41;99004.03;;;20.36;71.66
63556;BME280;49700;48.072;7.800;2023-07-02T01:47:08;99004.88;;;20.37;71.61
63556;BME280;49700;48.072;7.800;2023-07-02T01:49:34;99007.34;;;20.38;71.62
63556;BME280;49700;48.072;7.800;2023-07-02T01:52:00;99007.34;;;20.38;71.61
63556;BME280;49700;48.072;7.800;2023-07-02T01:54:27;99008.00;;;20.40;71.52
63556;BME280;49700;48.072;7.800;2023-07-02T01:56:56;99004.31;;;20.41;71.61
63556;BME280;49700;48.072;7.800;2023-07-02T01:59:25;99012.00;;;20.44;71.47
63556;BME280;49700;48.072;7.800;2023-07-02T02:01:51;99004.63;;;20.46;71.54
63556;BME280;49700;48.072;7.800;2023-07-02T02:04:17;99013.28;;;20.48;71.38
63556;BME280;49700;48.072;7.800;2023-07-02T02:06:43;99014.78;;;20.51;71.34
63556;BME280;49700;48.072;7.800;2023-07-02T02:09:09;99019.28;;;20.50;71.42
63556;BME280;49700;48.072;7.800;2023-07-02T02:11:42;99032.63;;;20.50;71.32
63556;BME280;49700;48.072;7.800;2023-07-02T02:14:08;99032.63;;;20.50;71.40
63556;BME280;49700;48.072;7.800;2023-07-02T02:16:34;99036.28;;;20.49;71.53
63556;BME280;49700;48.072;7.800;2023-07-02T02:19:00;99034.63;;;20.48;71.42
63556;BME280;49700;48.072;7.800;2023-07-02T02:21:26;99045.50;;;20.47;71.51
63556;BME280;49700;48.072;7.800;2023-07-02T02:23:52;99038.66;;;20.44;71.79
63556;BME280;49700;48.072;7.800;2023-07-02T02:26:17;99035.16;;;20.44;71.58
63556;BME280;49700;48.072;7.800;2023-07-02T02:28:43;99040.69;;;20.42;71.46
63556;BME280;49700;48.072;7.800;2023-07-02T02:31:09;99046.84;;;20.43;71.72
63556;BME280;49700;48.072;7.800;2023-07-02T02:33:35;99037.00;;;20.43;71.72
63556;BME280;49700;48.072;7.800;2023-07-02T02:36:02;99042.31;;;20.43;71.62
63556;BME280;49700;48.072;7.800;2023-07-02T02:38:28;99050.16;;;20.45;71.48
63556;BME280;49700;48.072;7.800;2023-07-02T02:40:54;99050.63;;;20.48;71.54
63556;BME280;49700;48.072;7.800;2023-07-02T02:43:20;99049.81;;;20.48;71.34
63556;BME280;49700;48.072;7.800;2023-07-02T02:45:46;99050.63;;;20.48;71.37
63556;BME280;49700;48.072;7.800;2023-07-02T02:48:12;99049.81;;;20.48;71.37
63556;BME280;49700;48.072;7.800;2023-07-02T02:50:38;99044.63;;;20.46;71.19
63556;BME280;49700;48.072;7.800;2023-07-02T02:53:09;99046.69;;;20.44;71.45
63556;BME280;49700;48.072;7.800;2023-07-02T02:55:35;99047.00;;;20.41;71.35
63556;BME280;49700;48.072;7.800;2023-07-02T02:58:01;99052.53;;;20.40;71.34
63556;BME280;49700;48.072;7.800;2023-07-02T03:00:27;99046.38;;;20.39;71.54
63556;BME280;49700;48.072;7.800;2023-07-02T03:02:52;99050.69;;;20.40;71.46
63556;BME280;49700;48.072;7.800;2023-07-02T03:05:18;99047.84;;;20.42;71.39
63556;BME280;49700;48.072;7.800;2023-07-02T03:07:43;99054.00;;;20.42;71.34
63556;BME280;49700;48.072;7.800;2023-07-02T03:10:09;99054.19;;;20.41;71.43
63556;BME280;49700;48.072;7.800;2023-07-02T03:12:35;99061.19;;;20.42;71.36
63556;BME280;49700;48.072;7.800;2023-07-02T03:15:00;99052.00;;;20.44;71.28
63556;BME280;49700;48.072;7.800;2023-07-02T03:17:26;99053.66;;;20.45;71.20
63556;BME280;49700;48.072;7.800;2023-07-02T03:19:51;99057.97;;;20.46;70.97
63556;BME280;49700;48.072;7.800;2023-07-02T03:22:17;99053.81;;;20.44;71.01
63556;BME280;49700;48.072;7.800;2023-07-02T03:24:43;99056.69;;;20.42;70.92
63556;BME280;49700;48.072;7.800;2023-07-02T03:27:08;99050.69;;;20.40;70.84
63556;BME280;49700;48.072;7.800;2023-07-02T03:29:34;99051.69;;;20.39;70.83
63556;BME280;49700;48.072;7.800;2023-07-02T03:32:01;99059.19;;;20.36;70.85
63556;BME280;49700;48.072;7.800;2023-07-02T03:34:26;99056.06;;;20.32;70.79
63556;BME280;49700;48.072;7.800;2023-07-02T03:36:52;99059.56;;;20.32;70.46
63556;BME280;49700;48.072;7.800;2023-07-02T03:39:17;99055.22;;;20.31;70.65
63556;BME280;49700;48.072;7.800;2023-07-02T03:41:43;99061.75;;;20.29;70.47
63556;BME280;49700;48.072;7.800;2023-07-02T03:44:09;99062.72;;;20.28;70.39
63556;BME280;49700;48.072;7.800;2023-07-02T03:46:34;99063.75;;;20.27;70.23
63556;BME280;49700;48.072;7.800;2023-07-02T03:49:00;99070.09;;;20.26;70.04
63556;BME280;49700;48.072;7.800;2023-07-02T03:51:25;99077.06;;;20.27;69.92
63556;BME280;49700;48.072;7.800;2023-07-02T03:53:51;99073.75;;;20.25;70.03
63556;BME280;49700;48.072;7.800;2023-07-02T03:56:16;99078.25;;;20.24;69.72
63556;BME280;49700;48.072;7.800;2023-07-02T03:58:42;99077.28;;;20.25;69.56
63556;BME280;49700;48.072;7.800;2023-07-02T04:01:08;99078.09;;;20.26;69.30
63556;BME280;49700;48.072;7.800;2023-07-02T04:03:33;99078.25;;;20.24;69.10
63556;BME280;49700;48.072;7.800;2023-07-02T04:05:59;99083.44;;;20.26;68.76
63556;BME280;49700;48.072;7.800;2023-07-02T04:08:25;99085.44;;;20.24;68.35
63556;BME280;49700;48.072;7.800;2023-07-02T04:10:51;99101.28;;;20.25;68.40
63556;BME280;49700;48.072;7.800;2023-07-02T04:13:16;99100.25;;;20.26;68.28
63556;BME280;49700;48.072;7.800;2023-07-02T04:15:42;99097.59;;;20.26;68.08
63556;BME280;49700;48.072;7.800;2023-07-02T04:18:07;99100.41;;;20.25;67.84
63556;BME280;49700;48.072;7.800;2023-07-02T04:20:33;99106.59;;;20.25;67.68
63556;BME280;49700;48.072;7.800;2023-07-02T04:22:59;99102.09;;;20.26;67.56
63556;BME280;49700;48.072;7.800;2023-07-02T04:25:24;99110.72;;;20.28;67.38
63556;BME280;49700;48.072;7.800;2023-07-02T04:27:50;99114.41;;;20.27;67.07
63556;BME280;49700;48.072;7.800;2023-07-02T04:30:15;99109.75;;;20.29;66.96
63556;BME280;49700;48.072;7.800;2023-07-02T04:32:41;99116.94;;;20.28;66.79
63556;BME280;49700;48.072;7.800;2023-07-02T04:35:07;99107.25;;;20.27;66.57
63556;BME280;49700;48.072;7.800;2023-07-02T04:37:33;99124.06;;;20.28;66.19
63556;BME280;49700;48.072;7.800;2023-07-02T04:39:58;99110.94;;;20.26;66.03
63556;BME280;49700;48.072;7.800;2023-07-02T04:42:25;99114.59;;;20.25;65.77
63556;BME280;49700;48.072;7.800;2023-07-02T04:44:55;99123.44;;;20.26;65.83
63556;BME280;49700;48.072;7.800;2023-07-02T04:47:21;99121.75;;;20.25;65.74
63556;BME280;49700;48.072;7.800;2023-07-02T04:49:46;99127.28;;;20.23;65.55
63556;BME280;49700;48.072;7.800;2023-07-02T04:52:12;99125.28;;;20.25;65.20
63556;BME280;49700;48.072;7.800;2023-07-02T04:54:37;99120.25;;;20.22;65.25
63556;BME280;49700;48.072;7.800;2023-07-02T04:57:03;99125.59;;;20.22;65.11
63556;BME280;49700;48.072;7.800;2023-07-02T04:59:28;99122.75;;;20.24;64.74
63556;BME280;49700;48.072;7.800;2023-07-02T05:01:54;99134.44;;;20.23;64.79
63556;BME280;49700;48.072;7.800;2023-07-02T05:04:19;99131.78;;;20.23;64.56
63556;BME280;49700;48.072;7.800;2023-07-02T05:06:44;99131.78;;;20.23;64.53
63556;BME280;49700;48.072;7.800;2023-07-02T05:09:10;99137.13;;;20.23;64.52
63556;BME280;49700;48.072;7.800;2023-07-02T05:11:35;99141.44;;;20.24;64.23
63556;BME280;49700;48.072;7.800;2023-07-02T05:14:01;99143.09;;;20.25;64.27
63556;BME280;49700;48.072;7.800;2023-07-02T05:16:26;99146.41;;;20.27;63.94
63556;BME280;49700;48.072;7.800;2023-07-02T05:18:52;99139.25;;;20.27;63.88
63556;BME280;49700;48.072;7.800;2023-07-02T05:21:18;99150.75;;;20.28;63.86
63556;BME280;49700;48.072;7.800;2023-07-02T05:23:43;99157.75;;;20.29;63.73
63556;BME280;49700;48.072;7.800;2023-07-02T05:26:09;99157.41;;;20.32;63.59
63556;BME280;49700;48.072;7.800;2023-07-02T05:28:34;99164.41;;;20.33;63.51
63556;BME280;49700;48.072;7.800;2023-07-02T05:30:59;99159.72;;;20.35;63.41
63556;BME280;49700;48.072;7.800;2023-07-02T05:33:25;99170.25;;;20.37;63.12
63556;BME280;49700;48.072;7.800;2023-07-02T05:35:50;99160.06;;;20.40;63.07
63556;BME280;49700;48.072;7.800;2023-07-02T05:38:17;99166.88;;;20.43;62.86
63556;BME280;49700;48.072;7.800;2023-07-02T05:40:43;99157.03;;;20.43;62.74
63556;BME280;49700;48.072;7.800;2023-07-02T05:43:09;99165.56;;;20.47;62.71
63556;BME280;49700;48.072;7.800;2023-07-02T05:45:34;99167.19;;;20.48;62.61
63556;BME280;49700;48.072;7.800;2023-07-02T05:48:00;99177.38;;;20.52;62.33
63556;BME280;49700;48.072;7.800;2023-07-02T05:50:25;99174.38;;;20.55;62.31
63556;BME280;49700;48.072;7.800;2023-07-02T05:52:50;99169.69;;;20.58;62.14
63556;BME280;49700;48.072;7.800;2023-07-02T05:55:16;99179.19;;;20.60;61.93
63556;BME280;49700;48.072;7.800;2023-07-02T05:57:42;99180.66;;;20.63;61.87
63556;BME280;49700;48.072;7.800;2023-07-02T06:00:08;99189.34;;;20.65;61.62
63556;BME280;49700;48.072;7.800;2023-07-02T06:02:39;99184.00;;;20.65;61.24
63556;BME280;49700;48.072;7.800;2023-07-02T06:05:05;99179.50;;;20.65;61.01
63556;BME280;49700;48.072;7.800;2023-07-02T06:07:30;99188.53;;;20.64;60.99
63556;BME280;49700;48.072;7.800;2023-07-02T06:09:56;99184.69;;;20.67;60.81
63556;BME280;49700;48.072;7.800;2023-07-02T06:12:21;99190.69;;;20.69;60.72
63556;BME280;49700;48.072;7.800;2023-07-02T06:14:47;99187.81;;;20.70;60.43
63556;BME280;49700;48.072;7.800;2023-07-02T06:17:13;99186.84;;;20.71;60.28
63556;BME280;49700;48.072;7.800;2023-07-02T06:19:38;99187.66;;;20.72;60.20
63556;BME280;49700;48.072;7.800;2023-07-02T06:22:04;99196.97;;;20.76;60.32
63556;BME280;49700;48.072;7.800;2023-07-02T06:24:29;99193.78;;;20.81;60.01
63556;BME280;49700;48.072;7.800;2023-07-02T06:26:55;99204.59;;;20.87;59.87
63556;BME280;49700;48.072;7.800;2023-07-02T06:29:22;99191.75;;;20.91;59.63
63556;BME280;49700;48.072;7.800;2023-07-02T06:31:48;99199.88;;;20.97;59.26
63556;BME280;49700;48.072;7.800;2023-07-02T06:34:14;99211.19;;;21.08;58.97
63556;BME280;49700;48.072;7.800;2023-07-02T06:36:40;99206.78;;;21.23;58.54
63556;BME280;49700;48.072;7.800;2023-07-02T06:39:05;99207.84;;;21.37;57.96
63556;BME280;49700;48.072;7.800;2023-07-02T06:41:31;99211.88;;;21.64;56.91
63556;BME280;49700;48.072;7.800;2023-07-02T06:43:56;99208.63;;;21.92;55.93
63556;BME280;49700;48.072;7.800;2023-07-02T06:46:21;99219.94;;;22.17;55.38
63556;BME280;49700;48.072;7.800;2023-07-02T06:48:47;99207.09;;;22.50;54.00
63556;BME280;49700;48.072;7.800;2023-07-02T06:51:12;99212.13;;;22.89;52.91
63556;BME280;49700;48.072;7.800;2023-07-02T06:53:42;99213.09;;;23.33;51.69
63556;BME280;49700;48.072;7.800;2023-07-02T06:56:08;99213.25;;;23.89;50.09
63556;BME280;49700;48.072;7.800;2023-07-02T06:58:34;99204.69;;;24.57;48.04
63556;BME280;49700;48.072;7.800;2023-07-02T07:01:00;99207.34;;;24.91;47.54
63556;BME280;49700;48.072;7.800;2023-07-02T07:03:26;99207.34;;;24.91;46.66
63556;BME280;49700;48.072;7.800;2023-07-02T07:05:51;99212.00;;;24.69;46.74
63556;BME280;49700;48.072;7.800;2023-07-02T07:08:16;99214.66;;;24.63;47.22
63556;BME280;49700;48.072;7.800;2023-07-02T07:10:42;99220.78;;;24.57;46.92
63556;BME280;49700;48.072;7.800;2023-07-02T07:13:07;99227.09;;;24.42;46.60
63556;BME280;49700;48.072;7.800;2023-07-02T07:15:33;99229.41;;;24.45;46.56
63556;BME280;49700;48.072;7.800;2023-07-02T07:18:02;99212.81;;;24.70;45.98
63556;BME280;49700;48.072;7.800;2023-07-02T07:20:28;99227.53;;;24.81;46.04
63556;BME280;49700;48.072;7.800;2023-07-02T07:22:54;99219.47;;;24.74;45.38
63556;BME280;49700;48.072;7.800;2023-07-02T07:25:19;99215.09;;;24.73;45.71
63556;BME280;49700;48.072;7.800;2023-07-02T07:27:45;99199.31;;;24.98;44.83
63556;BME280;49700;48.072;7.800;2023-07-02T07:30:11;99209.97;;;25.26;43.97
63556;BME280;49700;48.072;7.800;2023-07-02T07:32:36;99211.47;;;25.49;43.11
63556;BME280;49700;48.072;7.800;2023-07-02T07:35:02;99204.44;;;25.54;43.27
63556;BME280;49700;48.072;7.800;2023-07-02T07:37:27;99210.19;;;25.31;43.29
63556;BME280;49700;48.072;7.800;2023-07-02T07:39:56;99206.75;;;25.03;43.74
63556;BME280;49700;48.072;7.800;2023-07-02T07:42:21;99214.09;;;24.74;44.54
63556;BME280;49700;48.072;7.800;2023-07-02T07:44:47;99206.97;;;24.60;44.80
63556;BME280;49700;48.072;7.800;2023-07-02T07:47:12;99210.22;;;24.48;44.99
63556;BME280;49700;48.072;7.800;2023-07-02T07:49:38;99217.88;;;24.51;44.86
63556;BME280;49700;48.072;7.800;2023-07-02T07:52:04;99217.75;;;24.66;44.34
63556;BME280;49700;48.072;7.800;2023-07-02T07:54:32;99209.25;;;25.04;43.56
63556;BME280;49700;48.072;7.800;2023-07-02T07:56:57;99207.97;;;25.55;42.41
63556;BME280;49700;48.072;7.800;2023-07-02T07:59:41;99207.00;;;25.89;41.15
63556;BME280;49700;48.072;7.800;2023-07-02T08:02:07;99201.81;;;26.27;40.74
63556;BME280;49700;48.072;7.800;2023-07-02T08:04:32;99208.56;;;26.77;40.20
63556;BME280;49700;48.072;7.800;2023-07-02T08:06:58;99199.50;;;27.09;38.73
63556;BME280;49700;48.072;7.800;2023-07-02T08:09:24;99197.09;;;27.40;38.52
63556;BME280;49700;48.072;7.800;2023-07-02T08:11:50;99190.69;;;27.66;37.48
63556;BME280;49700;48.072;7.800;2023-07-02T08:14:17;99189.13;;;27.83;36.77
63556;BME280;49700;48.072;7.800;2023-07-02T08:16:43;99197.84;;;27.78;36.46
63556;BME280;49700;48.072;7.800;2023-07-02T08:19:09;99195.78;;;27.80;35.92
63556;BME280;49700;48.072;7.800;2023-07-02T08:21:35;99197.47;;;27.75;35.87
63556;BME280;49700;48.072;7.800;2023-07-02T08:24:00;99195.94;;;27.61;35.75
63556;BME280;49700;48.072;7.800;2023-07-02T08:26:26;99193.94;;;27.49;35.98
63556;BME280;49700;48.072;7.800;2023-07-02T08:28:51;99197.63;;;27.55;36.32
63556;BME280;49700;48.072;7.800;2023-07-02T08:31:17;99191.56;;;27.59;35.95
63556;BME280;49700;48.072;7.800;2023-07-02T08:33:42;99195.13;;;27.53;36.29
63556;BME280;49700;48.072;7.800;2023-07-02T08:36:07;99200.09;;;27.56;36.10
63556;BME280;49700;48.072;7.800;2023-07-02T08:38:33;99195.13;;;27.53;36.18
63556;BME280;49700;48.072;7.800;2023-07-02T08:40:58;99195.47;;;27.64;36.29
63556;BME280;49700;48.072;7.800;2023-07-02T08:43:25;99195.41;;;27.70;36.43
63556;BME280;49700;48.072;7.800;2023-07-02T08:45:51;99196.00;;;27.79;36.00
63556;BME280;49700;48.072;7.800;2023-07-02T08:48:17;99197.03;;;27.85;35.97
63556;BME280;49700;48.072;7.800;2023-07-02T08:50:48;99189.81;;;27.72;36.46
63556;BME280;49700;48.072;7.800;2023-07-02T08:53:14;99201.97;;;27.56;36.95
63556;BME280;49700;48.072;7.800;2023-07-02T08:55:39;99204.28;;;27.52;37.33
63556;BME280;49700;48.072;7.800;2023-07-02T08:58:05;99203.47;;;27.52;37.13
63556;BME280;49700;48.072;7.800;2023-07-02T09:00:30;99194.09;;;27.54;36.58
63556;BME280;49700;48.072;7.800;2023-07-02T09:03:11;99200.53;;;27.53;36.05
63556;BME280;49700;48.072;7.800;2023-07-02T09:05:47;99195.50;;;27.57;36.09
63556;BME280;49700;48.072;7.800;2023-07-02T09:08:22;99201.84;;;27.44;36.48
63556;BME280;49700;48.072;7.800;2023-07-02T09:10:48;99193.97;;;27.43;37.16
63556;BME280;49700;48.072;7.800;2023-07-02T09:13:13;99196.81;;;27.54;37.01
63556;BME280;49700;48.072;7.800;2023-07-02T09:15:39;99196.28;;;27.71;36.40
63556;BME280;49700;48.072;7.800;2023-07-02T09:18:22;99197.28;;;27.70;36.24
63556;BME280;49700;48.072;7.800;2023-07-02T09:20:54;99191.72;;;27.65;36.67
63556;BME280;49700;48.072;7.800;2023-07-02T09:23:20;99180.44;;;27.49;36.35
63556;BME280;49700;48.072;7.800;2023-07-02T09:25:45;99191.56;;;27.28;36.21
63556;BME280;49700;48.072;7.800;2023-07-02T09:28:19;99182.03;;;27.25;35.95
63556;BME280;49700;48.072;7.800;2023-07-02T09:30:55;99187.75;;;27.42;35.08
63556;BME280;49700;48.072;7.800;2023-07-02T09:33:25;99177.47;;;27.57;35.24
63556;BME280;49700;48.072;7.800;2023-07-02T09:35:51;99181.66;;;27.85;34.69
63556;BME280;49700;48.072;7.800;2023-07-02T09:38:19;99183.97;;;28.07;34.86
63556;BME280;49700;48.072;7.800;2023-07-02T09:40:52;99181.13;;;28.20;34.49
63556;BME280;49700;48.072;7.800;2023-07-02T09:43:19;99169.81;;;28.30;34.78
63556;BME280;49700;48.072;7.800;2023-07-02T09:45:46;99181.94;;;28.45;34.50
63556;BME280;49700;48.072;7.800;2023-07-02T09:48:16;99174.88;;;28.44;34.47
63556;BME280;49700;48.072;7.800;2023-07-02T09:50:43;99172.09;;;28.33;34.54
63556;BME280;49700;48.072;7.800;2023-07-02T09:53:09;99179.19;;;28.27;34.84
63556;BME280;49700;48.072;7.800;2023-07-02T09:55:36;99171.22;;;28.32;34.75
63556;BME280;49700;48.072;7.800;2023-07-02T09:58:01;99172.44;;;28.36;34.44
63556;BME280;49700;48.072;7.800;2023-07-02T10:00:27;99174.66;;;28.21;34.79
63556;BME280;49700;48.072;7.800;2023-07-02T10:02:52;99182.72;;;28.02;35.21
63556;BME280;49700;48.072;7.800;2023-07-02T10:05:32;99177.06;;;28.11;35.43
63556;BME280;49700;48.072;7.800;2023-07-02T10:07:59;99172.78;;;28.21;35.06
63556;BME280;49700;48.072;7.800;2023-07-02T10:10:36;99175.00;;;28.31;34.98
63556;BME280;49700;48.072;7.800;2023-07-02T10:13:01;99185.63;;;28.26;35.27
63556;BME280;49700;48.072;7.800;2023-07-02T10:15:28;99186.25;;;28.28;35.39
63556;BME280;49700;48.072;7.800;2023-07-02T10:17:58;99183.63;;;28.40;34.92
63556;BME280;49700;48.072;7.800;2023-07-02T10:20:37;99176.34;;;28.40;34.68
63556;BME280;49700;48.072;7.800;2023-07-02T10:23:04;99173.88;;;28.39;34.83
63556;BME280;49700;48.072;7.800;2023-07-02T10:25:32;99186.06;;;28.48;34.98
63556;BME280;49700;48.072;7.800;2023-07-02T10:28:00;99182.53;;;28.66;34.95
63556;BME280;49700;48.072;7.800;2023-07-02T10:30:34;99183.44;;;28.78;34.48
63556;BME280;49700;48.072;7.800;2023-07-02T10:33:14;99177.72;;;28.86;33.90
63556;BME280;49700;48.072;7.800;2023-07-02T10:35:40;99181.25;;;28.87;33.84
63556;BME280;49700;48.072;7.800;2023-07-02T10:40:54;99181.34;;;28.62;34.19
63556;BME280;49700;48.072;7.800;2023-07-02T10:43:25;99184.38;;;28.29;34.72
63556;BME280;49700;48.072;7.800;2023-07-02T10:45:50;99193.50;;;27.84;35.19
63556;BME280;49700;48.072;7.800;2023-07-02T10:48:16;99190.63;;;27.47;36.28
63556;BME280;49700;48.072;7.800;2023-07-02T10:50:41;99193.78;;;27.38;36.50
63556;BME280;49700;48.072;7.800;2023-07-02T10:53:17;99195.41;;;27.45;36.68
63556;BME280;49700;48.072;7.800;2023-07-02T10:55:43;99197.84;;;27.53;36.75
63556;BME280;49700;48.072;7.800;2023-07-02T10:58:09;99199.72;;;27.46;36.91
63556;BME280;49700;48.072;7.800;2023-07-02T11:00:45;99209.50;;;27.47;36.93
63556;BME280;49700;48.072;7.800;2023-07-02T11:03:22;99201.97;;;27.56;37.07
63556;BME280;49700;48.072;7.800;2023-07-02T11:05:49;99205.31;;;27.51;36.86
63556;BME280;49700;48.072;7.800;2023-07-02T11:08:15;99218.97;;;27.25;37.23
63556;BME280;49700;48.072;7.800;2023-07-02T11:10:41;99214.25;;;27.00;38.07
63556;BME280;49700;48.072;7.800;2023-07-02T11:13:13;99217.91;;;26.74;38.70
63556;BME280;49700;48.072;7.800;2023-07-02T11:15:39;99207.97;;;26.61;39.16
63556;BME280;49700;48.072;7.800;2023-07-02T11:18:15;99213.38;;;26.48;39.33
63556;BME280;49700;48.072;7.800;2023-07-02T11:20:42;99202.63;;;26.41;39.66
63556;BME280;49700;48.072;7.800;2023-07-02T11:23:36;99201.34;;;26.51;39.70
63556;BME280;49700;48.072;7.800;2023-07-02T11:26:02;99202.16;;;26.64;39.39
63556;BME280;49700;48.072;7.800;2023-07-02T11:28:30;99202.75;;;26.80;39.05
63556;BME280;49700;48.072;7.800;2023-07-02T11:30:57;99194.22;;;26.83;39.26
63556;BME280;49700;48.072;7.800;2023-07-02T11:33:39;99193.84;;;26.73;39.24
63556;BME280;49700;48.072;7.800;2023-07-02T11:36:06;99197.22;;;26.61;39.19
63556;BME280;49700;48.072;7.800;2023-07-02T11:38:33;99200.94;;;26.60;39.09
63556;BME280;49700;48.072;7.800;2023-07-02T11:40:59;99200.53;;;26.63;39.12
63556;BME280;49700;48.072;7.800;2023-07-02T11:43:25;99194.47;;;26.68;39.29
63556;BME280;49700;48.072;7.800;2023-07-02T11:45:51;99191.78;;;26.68;38.90
63556;BME280;49700;48.072;7.800;2023-07-02T11:48:16;99192.25;;;26.58;39.05
63556;BME280;49700;48.072;7.800;2023-07-02T11:50:42;99191.44;;;26.51;39.45
63556;BME280;49700;48.072;7.800;2023-07-02T11:53:07;99193.06;;;26.59;39.62
63556;BME280;49700;48.072;7.800;2023-07-02T11:55:32;99181.81;;;26.82;39.42
63556;BME280;49700;48.072;7.800;2023-07-02T11:57:58;99187.91;;;27.09;39.18
63556;BME280;49700;48.072;7.800;2023-07-02T12:00:23;99172.47;;;27.29;38.89
63556;BME280;49700;48.072;7.800;2023-07-02T12:02:49;99171.72;;;27.47;38.17
63556;BME280;49700;48.072;7.800;2023-07-02T12:05:14;99170.59;;;27.62;38.16
63556;BME280;49700;48.072;7.800;2023-07-02T12:07:40;99164.97;;;27.63;37.38
63556;BME280;49700;48.072;7.800;2023-07-02T12:10:07;99170.13;;;27.65;37.64
63556;BME280;49700;48.072;7.800;2023-07-02T12:12:32;99165.19;;;27.62;37.23
63556;BME280;49700;48.072;7.800;2023-07-02T12:14:57;99158.78;;;27.63;37.15
63556;BME280;49700;48.072;7.800;2023-07-02T12:17:23;99152.97;;;27.59;37.05
63556;BME280;49700;48.072;7.800;2023-07-02T12:19:48;99147.75;;;27.64;37.26
63556;BME280;49700;48.072;7.800;2023-07-02T12:22:14;99157.34;;;27.60;37.80
63556;BME280;49700;48.072;7.800;2023-07-02T12:24:43;99161.72;;;27.54;38.05
63556;BME280;49700;48.072;7.800;2023-07-02T12:27:08;99161.13;;;27.52;38.10
63556;BME280;49700;48.072;7.800;2023-07-02T12:29:35;99156.06;;;27.63;38.05
63556;BME280;49700;48.072;7.800;2023-07-02T12:32:00;99159.06;;;27.73;37.69
63556;BME280;49700;48.072;7.800;2023-07-02T12:34:26;99163.41;;;27.80;37.46
63556;BME280;49700;48.072;7.800;2023-07-02T12:36:52;99159.44;;;27.83;37.25
63556;BME280;49700;48.072;7.800;2023-07-02T12:39:17;99159.25;;;27.85;37.14
63556;BME280;49700;48.072;7.800;2023-07-02T12:41:42;99153.84;;;27.85;37.16
63556;BME280;49700;48.072;7.800;2023-07-02T12:44:08;99157.00;;;27.82;37.57
63556;BME280;49700;48.072;7.800;2023-07-02T12:46:33;99159.47;;;27.76;37.53
63556;BME280;49700;48.072;7.800;2023-07-02T12:48:58;99159.47;;;27.76;37.18
63556;BME280;49700;48.072;7.800;2023-07-02T12:51:24;99157.13;;;27.87;37.35
63556;BME280;49700;48.072;7.800;2023-07-02T12:53:49;99161.88;;;27.91;37.08
63556;BME280;49700;48.072;7.800;2023-07-02T12:56:15;99164.03;;;27.76;36.75
63556;BME280;49700;48.072;7.800;2023-07-02T12:58:40;99151.16;;;27.53;36.85
63556;BME280;49700;48.072;7.800;2023-07-02T13:01:05;99156.44;;;27.41;37.42